createdAt,value
2024-04-21T00:00:47.961Z,156.92
2024-04-21T00:01:48.000Z,157.41
2024-04-21T00:02:47.956Z,155.70
2024-04-21T00:03:48.093Z,156.18
2024-04-21T00:04:47.978Z,156.39
2024-04-21T00:05:47.912Z,155.98
2024-04-21T00:06:47.907Z,154.43
2024-04-21T00:07:47.875Z,154.05
2024-04-21T00:08:47.873Z,154.40
2024-04-21T00:09:47.898Z,155.32
2024-04-21T00:10:47.857Z,154.48
2024-04-21T00:11:47.842Z,154.04
2024-04-21T00:12:47.853Z,154.07
2024-04-21T00:13:47.829Z,154.02
2024-04-21T00:14:47.814Z,152.62
2024-04-21T00:15:47.870Z,151.73
2024-04-21T00:16:47.942Z,152.14
2024-04-21T00:17:47.819Z,151.43
2024-04-21T00:18:47.860Z,152.19
2024-04-21T00:19:47.793Z,152.15
2024-04-21T00:20:47.796Z,150.90
2024-04-21T00:21:47.839Z,151.63
2024-04-21T00:22:47.776Z,150.52
2024-04-21T00:23:47.794Z,149.32
2024-04-21T00:24:47.810Z,149.42
2024-04-21T00:25:47.767Z,150.52
2024-04-21T00:26:47.755Z,150.24
2024-04-21T00:27:47.787Z,149.14
2024-04-21T00:28:47.730Z,147.70
2024-04-21T00:29:47.764Z,147.20
2024-04-21T00:30:47.735Z,147.24
2024-04-21T00:31:47.724Z,146.48
2024-04-21T00:32:47.767Z,146.79
2024-04-21T00:33:47.796Z,146.68
2024-04-21T00:34:47.693Z,147.78
2024-04-21T00:35:47.697Z,146.46
2024-04-21T00:36:47.697Z,145.99
2024-04-21T00:37:47.690Z,144.89
2024-04-21T00:38:47.676Z,146.77
2024-04-21T00:39:47.718Z,145.00
2024-04-21T00:40:47.735Z,144.68
2024-04-21T00:41:47.736Z,143.82
2024-04-21T00:42:47.805Z,144.69
2024-04-21T00:43:47.782Z,143.98
2024-04-21T00:44:47.801Z,145.19
2024-04-21T00:45:47.940Z,143.67
2024-04-21T00:46:47.851Z,144.03
2024-04-21T00:47:47.893Z,142.30
2024-04-21T00:48:47.906Z,142.82
2024-04-21T00:49:47.900Z,142.17
2024-04-21T00:50:47.926Z,142.29
2024-04-21T00:51:47.953Z,142.93
2024-04-21T00:52:47.950Z,141.90
2024-04-21T00:53:48.005Z,140.62
2024-04-21T00:54:47.998Z,140.25
2024-04-21T00:55:48.016Z,140.86
2024-04-21T00:56:48.018Z,140.59
2024-04-21T00:57:48.027Z,140.62
2024-04-21T00:58:48.023Z,140.64
2024-04-21T00:59:48.011Z,140.35
2024-04-21T01:00:48.076Z,139.61
2024-04-21T01:01:48.065Z,137.58
2024-04-21T01:02:48.057Z,139.02
2024-04-21T01:03:48.126Z,138.99
2024-04-21T01:04:48.025Z,138.25
2024-04-21T01:05:50.510Z,137.89
2024-04-21T01:06:47.987Z,137.92
2024-04-21T01:07:47.963Z,138.04
2024-04-21T01:08:47.957Z,137.54
2024-04-21T01:09:47.947Z,137.79
2024-04-21T01:10:47.960Z,137.38
2024-04-21T01:11:47.964Z,136.25
2024-04-21T01:12:47.966Z,136.10
2024-04-21T01:13:47.918Z,136.74
2024-04-21T01:14:47.900Z,135.84
2024-04-21T01:15:47.914Z,134.99
2024-04-21T01:16:47.888Z,134.95
2024-04-21T01:17:48.018Z,134.26
2024-04-21T01:18:47.914Z,134.11
2024-04-21T01:19:47.866Z,134.17
2024-04-21T01:20:47.857Z,132.62
2024-04-21T01:21:47.896Z,134.16
2024-04-21T01:22:47.852Z,132.46
2024-04-21T01:23:47.839Z,132.19
2024-04-21T01:24:47.873Z,132.40
2024-04-21T01:25:47.822Z,132.20
2024-04-21T01:26:47.810Z,131.09
2024-04-21T01:27:47.867Z,130.88
2024-04-21T01:28:47.789Z,130.74
2024-04-21T01:29:47.782Z,130.22
2024-04-21T01:30:47.823Z,130.23
2024-04-21T01:31:47.800Z,131.21
2024-04-21T01:32:47.855Z,130.39
2024-04-21T01:33:47.913Z,129.21
2024-04-21T01:34:47.860Z,129.99
2024-04-21T01:35:47.878Z,128.08
2024-04-21T01:36:47.922Z,130.14
2024-04-21T01:37:47.874Z,128.48
2024-04-21T01:38:47.907Z,128.63
2024-04-21T01:39:47.879Z,128.26
2024-04-21T01:40:47.837Z,128.54
2024-04-21T01:41:47.827Z,128.05
2024-04-21T01:42:47.846Z,127.64
2024-04-21T01:43:47.805Z,126.50
2024-04-21T01:44:47.786Z,126.23
2024-04-21T01:45:47.800Z,126.43
2024-04-21T01:46:47.784Z,127.12
2024-04-21T01:47:47.798Z,126.51
2024-04-21T01:48:47.798Z,125.17
2024-04-21T01:49:47.755Z,126.12
2024-04-21T01:50:47.730Z,125.47
2024-04-21T01:51:47.724Z,124.52
2024-04-21T01:52:47.692Z,124.50
2024-04-21T01:53:47.691Z,123.85
2024-04-21T01:54:47.751Z,123.32
2024-04-21T01:55:47.657Z,123.35
2024-04-21T01:56:47.660Z,122.69
2024-04-21T01:57:47.724Z,124.10
2024-04-21T01:58:47.706Z,122.30
2024-04-21T01:59:47.733Z,121.98
2024-04-21T02:00:47.828Z,121.71
2024-04-21T02:01:47.796Z,121.78
2024-04-21T02:02:47.852Z,122.50
2024-04-21T02:03:47.889Z,122.08
2024-04-21T02:04:47.875Z,119.32
2024-04-21T02:05:47.866Z,121.54
2024-04-21T02:06:47.909Z,121.21
2024-04-21T02:07:47.878Z,121.19
2024-04-21T02:08:47.883Z,121.25
2024-04-21T02:09:47.870Z,120.77
2024-04-21T02:10:47.854Z,118.98
2024-04-21T02:11:47.829Z,119.64
2024-04-21T02:12:47.862Z,119.66
2024-04-21T02:13:47.818Z,119.11
2024-04-21T02:14:47.833Z,118.54
2024-04-21T02:15:47.808Z,118.48
2024-04-21T02:16:47.819Z,117.46
2024-04-21T02:17:47.814Z,117.51
2024-04-21T02:18:47.875Z,117.96
2024-04-21T02:19:47.775Z,116.55
2024-04-21T02:20:47.768Z,116.74
2024-04-21T02:21:47.746Z,116.48
2024-04-21T02:22:47.740Z,116.78
2024-04-21T02:23:47.732Z,116.16
2024-04-21T02:24:47.720Z,115.73
2024-04-21T02:25:47.690Z,116.29
2024-04-21T02:26:47.688Z,114.55
2024-04-21T02:27:47.736Z,115.28
2024-04-21T02:28:47.716Z,114.00
2024-04-21T02:29:47.714Z,114.35
2024-04-21T02:30:47.762Z,114.25
2024-04-21T02:31:47.746Z,115.48
2024-04-21T02:32:47.813Z,114.41
2024-04-21T02:33:47.777Z,113.30
2024-04-21T02:34:47.748Z,113.30
2024-04-21T02:35:47.737Z,112.54
2024-04-21T02:36:47.756Z,112.97
2024-04-21T02:37:47.719Z,112.43
2024-04-21T02:38:47.705Z,113.94
2024-04-21T02:39:47.710Z,113.33
2024-04-21T02:40:47.682Z,112.92
2024-04-21T02:41:47.669Z,113.35
2024-04-21T02:42:47.666Z,111.23
2024-04-21T02:43:47.643Z,111.38
2024-04-21T02:44:47.634Z,110.66
2024-04-21T02:45:47.679Z,111.30
2024-04-21T02:46:47.655Z,111.38
2024-04-21T02:47:47.623Z,111.18
2024-04-21T02:48:47.572Z,109.03
2024-04-21T02:49:47.543Z,108.65
2024-04-21T02:50:47.545Z,111.03
2024-04-21T02:51:47.538Z,109.10
2024-04-21T02:52:47.499Z,109.45
2024-04-21T02:53:47.491Z,108.13
2024-04-21T02:54:47.480Z,107.14
2024-04-21T02:55:47.449Z,107.37
2024-04-21T02:56:47.420Z,107.33
2024-04-21T02:57:47.463Z,106.73
2024-04-21T02:58:47.439Z,107.83
2024-04-21T02:59:47.388Z,105.16
2024-04-21T03:00:47.441Z,106.90
2024-04-21T03:01:47.394Z,105.68
2024-04-21T03:02:47.375Z,106.13
2024-04-21T03:03:47.388Z,105.58
2024-04-21T03:04:47.347Z,105.14
2024-04-21T03:05:47.323Z,105.60
2024-04-21T03:06:47.337Z,103.79
2024-04-21T03:07:47.342Z,104.56
2024-04-21T03:08:47.349Z,103.28
2024-04-21T03:09:47.380Z,105.39
2024-04-21T03:10:47.378Z,103.78
2024-04-21T03:11:47.376Z,103.97
2024-04-21T03:12:47.419Z,104.32
2024-04-21T03:13:47.395Z,103.95
2024-04-21T03:14:47.408Z,101.29
2024-04-21T03:15:47.451Z,103.03
2024-04-21T03:16:47.440Z,102.24
2024-04-21T03:17:47.480Z,101.30
2024-04-21T03:18:47.496Z,101.53
2024-04-21T03:19:47.455Z,101.96
2024-04-21T03:20:47.449Z,101.81
2024-04-21T03:21:47.481Z,100.11
2024-04-21T03:22:47.473Z,100.29
2024-04-21T03:23:47.510Z,100.52
2024-04-21T03:24:47.535Z,100.21
2024-04-21T03:25:47.500Z,100.05
2024-04-21T03:26:47.521Z,100.01
2024-04-21T03:27:47.536Z,98.81
2024-04-21T03:28:47.538Z,99.55
2024-04-21T03:29:47.554Z,100.58
2024-04-21T03:30:47.588Z,98.42
2024-04-21T03:31:47.575Z,98.99
2024-04-21T03:32:47.643Z,99.21
2024-04-21T03:33:47.595Z,97.59
2024-04-21T03:34:47.614Z,96.09
2024-04-21T03:35:47.614Z,96.58
2024-04-21T03:36:47.657Z,97.06
2024-04-21T03:37:47.641Z,96.67
2024-04-21T03:38:47.660Z,97.30
2024-04-21T03:39:47.692Z,96.67
2024-04-21T03:40:47.674Z,97.21
2024-04-21T03:41:47.700Z,96.01
2024-04-21T03:42:47.733Z,95.07
2024-04-21T03:43:47.728Z,95.24
2024-04-21T03:44:47.734Z,94.18
2024-04-21T03:45:47.769Z,94.25
2024-04-21T03:46:47.820Z,95.39
2024-04-21T03:47:47.803Z,95.16
2024-04-21T03:48:47.799Z,94.04
2024-04-21T03:49:47.822Z,93.25
2024-04-21T03:50:47.845Z,92.97
2024-04-21T03:51:47.865Z,91.62
2024-04-21T03:52:47.858Z,93.11
2024-04-21T03:53:47.874Z,92.71
2024-04-21T03:54:47.932Z,93.35
2024-04-21T03:55:47.906Z,93.49
2024-04-21T03:56:47.926Z,91.93
2024-04-21T03:57:47.929Z,92.62
2024-04-21T03:58:47.959Z,90.76
2024-04-21T03:59:47.966Z,92.45
2024-04-21T04:00:48.129Z,90.00
2024-04-21T04:01:48.093Z,90.65
2024-04-21T04:02:48.025Z,91.83
2024-04-21T04:03:48.109Z,90.82
2024-04-21T04:04:48.118Z,88.65
2024-04-21T04:05:48.055Z,89.41
2024-04-21T04:06:48.123Z,88.83
2024-04-21T04:07:48.073Z,89.34
2024-04-21T04:08:48.091Z,88.36
2024-04-21T04:09:48.169Z,88.97
2024-04-21T04:10:48.126Z,89.27
2024-04-21T04:11:48.125Z,88.39
2024-04-21T04:12:48.157Z,87.34
2024-04-21T04:13:48.153Z,89.90
2024-04-21T04:14:48.176Z,86.98
2024-04-21T04:15:48.242Z,86.81
2024-04-21T04:16:48.199Z,87.12
2024-04-21T04:17:48.323Z,87.94
2024-04-21T04:18:48.246Z,85.95
2024-04-21T04:19:48.244Z,85.57
2024-04-21T04:20:48.260Z,86.72
2024-04-21T04:21:48.274Z,85.25
2024-04-21T04:22:48.337Z,87.57
2024-04-21T04:23:48.288Z,87.33
2024-04-21T04:24:48.323Z,86.08
2024-04-21T04:25:55.929Z,50.00
2024-04-21T04:26:55.924Z,50.00
2024-04-21T04:27:55.947Z,50.00
2024-04-21T04:28:55.906Z,50.00
2024-04-21T04:29:55.897Z,50.00
2024-04-21T04:30:55.895Z,51.32
2024-04-21T04:32:03.265Z,50.00
2024-04-21T04:33:03.296Z,50.00
2024-04-21T04:34:03.229Z,50.00
2024-04-21T04:35:03.212Z,50.00
2024-04-21T04:36:03.171Z,50.00
2024-04-21T04:37:03.203Z,50.63
2024-04-21T04:38:03.124Z,52.90
2024-04-21T04:39:03.102Z,50.00
2024-04-21T04:40:03.120Z,53.52
2024-04-21T04:41:03.059Z,56.03
2024-04-21T04:42:03.039Z,50.88
2024-04-21T04:43:03.065Z,50.29
2024-04-21T04:44:02.982Z,52.34
2024-04-21T04:45:03.016Z,51.07
2024-04-21T04:46:03.011Z,51.52
2024-04-21T04:47:02.988Z,53.19
2024-04-21T04:48:02.930Z,52.34
2024-04-21T04:49:02.918Z,51.17
2024-04-21T04:50:02.847Z,52.04
2024-04-21T04:51:02.871Z,52.22
2024-04-21T04:52:02.860Z,53.17
2024-04-21T04:53:02.786Z,53.44
2024-04-21T04:54:02.756Z,53.52
2024-04-21T04:55:02.824Z,54.63
2024-04-21T04:56:02.698Z,50.00
2024-04-21T04:57:02.669Z,52.25
2024-04-21T04:58:02.675Z,52.49
2024-04-21T04:59:04.031Z,53.42
2024-04-21T05:00:02.623Z,55.17
2024-04-21T05:01:02.665Z,51.38
2024-04-21T05:02:02.593Z,51.88
2024-04-21T05:03:02.570Z,51.49
2024-04-21T05:04:02.573Z,50.85
2024-04-21T05:05:02.607Z,51.26
2024-04-21T05:06:02.462Z,52.11
2024-04-21T05:07:02.475Z,54.03
2024-04-21T05:08:02.431Z,51.93
2024-04-21T05:09:02.404Z,50.78
2024-04-21T05:10:02.477Z,53.60
2024-04-21T05:11:02.417Z,50.47
2024-04-21T05:12:02.333Z,51.96
2024-04-21T05:13:02.335Z,51.38
2024-04-21T05:14:02.292Z,50.00
2024-04-21T05:15:02.277Z,51.76
2024-04-21T05:16:02.314Z,52.10
2024-04-21T05:17:02.218Z,51.06
2024-04-21T05:18:02.368Z,53.25
2024-04-21T05:19:02.219Z,51.34
2024-04-21T05:20:02.159Z,50.00
2024-04-21T05:21:02.141Z,53.25
2024-04-21T05:22:02.145Z,50.81
2024-04-21T05:23:02.127Z,50.28
2024-04-21T05:24:02.089Z,51.98
2024-04-21T05:25:02.086Z,50.27
2024-04-21T05:26:02.058Z,53.45
2024-04-21T05:27:02.029Z,50.00
2024-04-21T05:28:02.050Z,51.71
2024-04-21T05:29:02.065Z,52.53
2024-04-21T05:30:02.027Z,52.94
2024-04-21T05:31:01.998Z,50.64
2024-04-21T05:32:01.970Z,51.86
2024-04-21T05:33:01.924Z,50.62
2024-04-21T05:34:01.904Z,51.22
2024-04-21T05:35:01.852Z,52.48
2024-04-21T05:36:01.825Z,51.33
2024-04-21T05:37:01.838Z,53.59
2024-04-21T05:38:01.781Z,52.89
2024-04-21T05:39:01.753Z,51.30
2024-04-21T05:40:01.917Z,50.13
2024-04-21T05:41:01.737Z,49.62
2024-04-21T05:42:01.705Z,48.71
2024-04-21T05:43:01.693Z,51.67
2024-04-21T05:44:01.674Z,50.56
2024-04-21T05:45:01.662Z,50.00
2024-04-21T05:46:01.652Z,50.58
2024-04-21T05:47:01.675Z,51.62
2024-04-21T05:48:01.726Z,51.62
2024-04-21T05:49:01.651Z,52.75
2024-04-21T05:50:01.576Z,50.00
2024-04-21T05:51:01.553Z,49.81
2024-04-21T05:52:01.616Z,54.06
2024-04-21T05:53:01.574Z,52.74
2024-04-21T05:54:01.569Z,52.74
2024-04-21T05:55:01.813Z,52.69
2024-04-21T05:56:01.529Z,52.06
2024-04-21T05:57:01.513Z,50.03
2024-04-21T05:58:01.542Z,49.33
2024-04-21T05:59:01.475Z,52.04
2024-04-21T06:00:01.448Z,51.63
2024-04-21T06:01:01.563Z,52.41
2024-04-21T06:02:01.415Z,50.71
2024-04-21T06:03:01.517Z,53.08
2024-04-21T06:04:01.436Z,50.10
2024-04-21T06:05:01.553Z,50.67
2024-04-21T06:06:01.345Z,54.29
2024-04-21T06:07:01.375Z,51.29
2024-04-21T06:08:01.343Z,54.21
2024-04-21T06:09:01.369Z,52.29
2024-04-21T06:10:01.447Z,51.73
2024-04-21T06:11:01.461Z,53.54
2024-04-21T06:12:01.434Z,53.94
2024-04-21T06:13:01.511Z,52.99
2024-04-21T06:14:01.481Z,53.03
2024-04-21T06:15:01.514Z,52.96
2024-04-21T06:16:01.571Z,51.17
2024-04-21T06:17:01.567Z,50.34
2024-04-21T06:18:01.680Z,51.38
2024-04-21T06:19:01.764Z,52.44
2024-04-21T06:20:01.686Z,51.10
2024-04-21T06:21:01.678Z,52.56
2024-04-21T06:22:01.720Z,50.80
2024-04-21T06:23:01.733Z,52.38
2024-04-21T06:24:01.748Z,52.03
2024-04-21T06:25:01.831Z,53.96
2024-04-21T06:26:01.805Z,51.95
2024-04-21T06:27:01.832Z,51.64
2024-04-21T06:28:01.888Z,51.25
2024-04-21T06:29:01.876Z,54.11
2024-04-21T06:30:01.906Z,51.17
2024-04-21T06:31:02.025Z,52.65
2024-04-21T06:32:02.002Z,50.00
2024-04-21T06:33:02.041Z,50.00
2024-04-21T06:34:02.040Z,50.42
2024-04-21T06:35:02.040Z,52.53
2024-04-21T06:36:02.048Z,52.54
2024-04-21T06:37:02.064Z,52.77
2024-04-21T06:38:02.022Z,51.07
2024-04-21T06:39:01.961Z,51.02
2024-04-21T06:40:02.039Z,48.58
2024-04-21T06:41:01.951Z,52.07
2024-04-21T06:42:01.917Z,54.23
2024-04-21T06:43:01.932Z,51.92
2024-04-21T06:44:01.880Z,51.02
2024-04-21T06:45:01.873Z,51.34
2024-04-21T06:46:01.886Z,52.87
2024-04-21T06:47:01.819Z,52.64
2024-04-21T06:48:01.983Z,50.63
2024-04-21T06:49:01.922Z,50.89
2024-04-21T06:50:01.902Z,54.04
2024-04-21T06:51:01.917Z,52.36
2024-04-21T06:52:02.069Z,50.52
2024-04-21T06:53:01.976Z,52.11
2024-04-21T06:54:02.020Z,51.85
2024-04-21T06:55:02.155Z,52.10
2024-04-21T06:56:02.084Z,53.52
2024-04-21T06:57:02.095Z,54.17
2024-04-21T06:58:02.177Z,52.84
2024-04-21T06:59:02.178Z,51.23
2024-04-21T07:00:02.211Z,52.46
2024-04-21T07:01:02.356Z,50.00
2024-04-21T07:02:02.313Z,51.89
2024-04-21T07:03:03.343Z,50.00
2024-04-21T07:04:02.400Z,53.74
2024-04-21T07:05:02.435Z,52.23
2024-04-21T07:06:02.431Z,55.43
2024-04-21T07:07:02.477Z,54.29
2024-04-21T07:08:02.514Z,56.40
2024-04-21T07:09:02.544Z,54.82
2024-04-21T07:10:02.622Z,54.51
2024-04-21T07:11:02.775Z,55.70
2024-04-21T07:12:02.641Z,53.17
2024-04-21T07:13:02.724Z,55.28
2024-04-21T07:14:14.285Z,55.26
2024-04-21T07:15:03.676Z,52.85
2024-04-21T07:16:02.678Z,54.52
2024-04-21T07:17:02.658Z,55.05
2024-04-21T07:18:02.811Z,54.04
2024-04-21T07:19:02.712Z,53.48
2024-04-21T07:20:02.609Z,52.24
2024-04-21T07:21:02.579Z,54.14
2024-04-21T07:22:02.629Z,56.31
2024-04-21T07:23:02.538Z,55.12
2024-04-21T07:24:02.508Z,53.88
2024-04-21T07:25:12.688Z,53.10
2024-04-21T07:26:03.517Z,53.20
2024-04-21T07:27:02.483Z,53.49
2024-04-21T07:28:02.482Z,53.57
2024-04-21T07:29:02.419Z,53.66
2024-04-21T07:30:02.405Z,54.51
2024-04-21T07:31:02.408Z,55.42
2024-04-21T07:32:02.401Z,55.66
2024-04-21T07:33:02.404Z,55.48
2024-04-21T07:34:02.401Z,55.09
2024-04-21T07:35:02.315Z,55.50
2024-04-21T07:36:02.291Z,54.52
2024-04-21T07:37:02.304Z,56.61
2024-04-21T07:39:02.296Z,53.41
2024-04-21T07:40:02.229Z,53.64
2024-04-21T07:41:02.197Z,50.89
2024-04-21T07:42:02.219Z,51.94
2024-04-21T07:43:02.252Z,55.21
2024-04-21T07:44:02.235Z,54.85
2024-04-21T07:45:02.245Z,55.64
2024-04-21T07:46:03.381Z,55.10
2024-04-21T07:47:02.356Z,55.33
2024-04-21T07:48:02.455Z,54.93
2024-04-21T07:49:02.359Z,55.28
2024-04-21T07:50:02.345Z,53.48
2024-04-21T07:51:02.350Z,53.07
2024-04-21T07:52:02.406Z,55.87
2024-04-21T07:53:02.463Z,53.61
2024-04-21T07:54:02.418Z,54.24
2024-04-21T07:55:02.483Z,50.91
2024-04-21T07:56:02.440Z,52.94
2024-04-21T07:57:03.569Z,55.18
2024-04-21T07:58:02.499Z,52.24
2024-04-21T07:59:02.482Z,53.67
2024-04-21T08:00:02.519Z,51.15
2024-04-21T08:01:02.588Z,51.50
2024-04-21T08:02:02.564Z,52.48
2024-04-21T08:03:02.552Z,53.15
2024-04-21T08:04:02.617Z,52.77
2024-04-21T08:05:02.559Z,52.70
2024-04-21T08:06:02.567Z,50.67
2024-04-21T08:07:02.702Z,50.88
2024-04-21T08:08:02.575Z,53.48
2024-04-21T08:09:11.518Z,54.27
2024-04-21T08:10:03.646Z,52.06
2024-04-21T08:11:04.844Z,51.73
2024-04-21T08:12:02.532Z,53.06
2024-04-21T08:13:02.546Z,52.52
2024-04-21T08:14:02.481Z,51.62
2024-04-21T08:15:02.461Z,51.21
2024-04-21T08:16:02.485Z,53.30
2024-04-21T08:17:02.410Z,51.47
2024-04-21T08:18:02.472Z,51.08
2024-04-21T08:19:02.435Z,52.75
2024-04-21T08:20:02.387Z,50.34
2024-04-21T08:21:02.337Z,51.49
2024-04-21T08:22:02.364Z,50.74
2024-04-21T08:23:02.313Z,52.70
2024-04-21T08:24:02.266Z,52.54
2024-04-21T08:25:02.318Z,53.14
2024-04-21T08:26:02.216Z,52.42
2024-04-21T08:27:02.177Z,52.72
2024-04-21T08:28:02.199Z,52.79
2024-04-21T08:29:02.135Z,53.00
2024-04-21T08:30:02.124Z,51.87
2024-04-21T08:31:02.106Z,55.43
2024-04-21T08:32:02.184Z,54.30
2024-04-21T08:33:02.075Z,50.37
2024-04-21T08:34:02.134Z,53.67
2024-04-21T08:35:01.996Z,55.07
2024-04-21T08:36:01.965Z,55.35
2024-04-21T08:37:01.997Z,53.44
2024-04-21T08:38:01.918Z,53.45
2024-04-21T08:39:01.943Z,53.51
2024-04-21T08:40:01.948Z,54.12
2024-04-21T08:41:01.835Z,55.11
2024-04-21T08:42:01.823Z,53.49
2024-04-21T08:43:01.813Z,55.21
2024-04-21T08:44:01.815Z,53.44
2024-04-21T08:45:01.745Z,54.16
2024-04-21T08:46:01.739Z,53.26
2024-04-21T08:47:01.701Z,55.02
2024-04-21T08:48:01.759Z,53.42
2024-04-21T08:49:01.678Z,54.00
2024-04-21T08:50:01.654Z,55.47
2024-04-21T08:51:01.603Z,56.76
2024-04-21T08:52:01.661Z,53.40
2024-04-21T08:53:01.575Z,53.99
2024-04-21T08:54:01.534Z,53.67
2024-04-21T08:55:01.600Z,55.88
2024-04-21T08:56:01.499Z,54.05
2024-04-21T08:57:01.486Z,55.31
2024-04-21T08:58:01.506Z,55.53
2024-04-21T08:59:01.432Z,55.62
2024-04-21T09:00:01.419Z,52.29
2024-04-21T09:01:01.479Z,53.89
2024-04-21T09:02:01.462Z,53.76
2024-04-21T09:03:01.348Z,54.33
2024-04-21T09:04:01.437Z,54.59
2024-04-21T09:05:01.475Z,54.27
2024-04-21T09:06:01.293Z,55.23
2024-04-21T09:07:01.292Z,53.81
2024-04-21T09:08:01.268Z,53.41
2024-04-21T09:09:01.230Z,54.96
2024-04-21T09:10:01.249Z,57.21
2024-04-21T09:11:01.201Z,54.08
2024-04-21T09:12:01.167Z,53.11
2024-04-21T09:13:01.184Z,54.27
2024-04-21T09:14:01.125Z,56.27
2024-04-21T09:15:01.114Z,52.22
2024-04-21T09:16:01.112Z,53.88
2024-04-21T09:17:01.075Z,54.90
2024-04-21T09:18:01.389Z,56.35
2024-04-21T09:19:01.101Z,55.65
2024-04-21T09:20:00.994Z,56.51
2024-04-21T09:21:00.976Z,53.04
2024-04-21T09:22:00.977Z,54.65
2024-04-21T09:23:00.939Z,54.06
2024-04-21T09:24:00.928Z,55.44
2024-04-21T09:25:00.937Z,55.55
2024-04-21T09:26:00.891Z,56.58
2024-04-21T09:27:00.864Z,53.80
2024-04-21T09:28:00.876Z,54.62
2024-04-21T09:29:00.808Z,53.18
2024-04-21T09:30:00.790Z,54.23
2024-04-21T09:31:00.794Z,54.81
2024-04-21T09:32:00.786Z,54.66
2024-04-21T09:33:00.812Z,55.68
2024-04-21T09:34:00.791Z,52.05
2024-04-21T09:35:00.692Z,54.63
2024-04-21T09:36:00.684Z,55.11
2024-04-21T09:37:00.664Z,53.52
2024-04-21T09:38:00.606Z,53.82
2024-04-21T09:39:00.640Z,53.50
2024-04-21T09:40:00.596Z,52.88
2024-04-21T09:41:00.574Z,54.26
2024-04-21T09:42:00.542Z,52.58
2024-04-21T09:43:00.557Z,52.25
2024-04-21T09:44:00.513Z,53.06
2024-04-21T09:45:00.473Z,50.31
2024-04-21T09:46:00.453Z,53.07
2024-04-21T09:47:00.428Z,56.24
2024-04-21T09:48:00.597Z,53.23
2024-04-21T09:49:00.442Z,53.25
2024-04-21T09:50:00.385Z,53.30
2024-04-21T09:51:00.335Z,53.32
2024-04-21T09:52:00.335Z,52.79
2024-04-21T09:53:00.280Z,52.89
2024-04-21T09:54:00.267Z,54.09
2024-04-21T09:55:00.303Z,50.88
2024-04-21T09:56:00.210Z,54.95
2024-04-21T09:57:00.189Z,54.20
2024-04-21T09:58:00.242Z,50.31
2024-04-21T09:59:00.135Z,53.76
2024-04-21T10:00:00.184Z,50.96
2024-04-21T10:01:00.114Z,52.54
2024-04-21T10:02:00.132Z,52.65
2024-04-21T10:03:00.088Z,52.68
2024-04-21T10:04:00.148Z,53.16
2024-04-21T10:05:00.000Z,53.25
2024-04-21T10:05:59.971Z,54.87
2024-04-21T10:06:59.958Z,53.54
2024-04-21T10:07:59.915Z,52.13
2024-04-21T10:08:59.880Z,53.10
2024-04-21T10:09:59.888Z,51.74
2024-04-21T10:10:59.889Z,53.56
2024-04-21T10:11:59.820Z,51.85
2024-04-21T10:12:59.830Z,52.58
2024-04-21T10:13:59.772Z,52.11
2024-04-21T10:14:59.724Z,52.49
2024-04-21T10:15:59.720Z,52.45
2024-04-21T10:16:59.656Z,52.19
2024-04-21T10:17:59.818Z,52.27
2024-04-21T10:18:59.721Z,51.80
2024-04-21T10:19:59.584Z,55.88
2024-04-21T10:20:59.530Z,53.24
2024-04-21T10:21:59.507Z,52.07
2024-04-21T10:22:59.480Z,51.30
2024-04-21T10:23:59.445Z,54.91
2024-04-21T10:24:59.436Z,53.47
2024-04-21T10:25:59.418Z,52.83
2024-04-21T10:26:59.354Z,53.19
2024-04-21T10:27:59.350Z,55.55
2024-04-21T10:28:59.323Z,52.07
2024-04-21T10:29:59.289Z,53.59
2024-04-21T10:30:59.287Z,53.18
2024-04-21T10:31:59.287Z,53.37
2024-04-21T10:32:59.247Z,54.19
2024-04-21T10:33:59.206Z,54.26
2024-04-21T10:34:59.160Z,54.08
2024-04-21T10:35:59.177Z,50.15
2024-04-21T10:36:59.162Z,55.88
2024-04-21T10:37:59.119Z,49.84
2024-04-21T10:38:59.082Z,54.53
2024-04-21T10:39:59.070Z,53.45
2024-04-21T10:40:59.020Z,56.45
2024-04-21T10:41:58.996Z,56.51
2024-04-21T10:42:59.000Z,55.81
2024-04-21T10:43:58.941Z,55.12
2024-04-21T10:44:58.916Z,55.22
2024-04-21T10:45:58.904Z,55.23
2024-04-21T10:46:58.878Z,55.95
2024-04-21T10:47:58.957Z,55.62
2024-04-21T10:48:58.840Z,52.15
2024-04-21T10:49:58.799Z,55.22
2024-04-21T10:50:58.760Z,56.05
2024-04-21T10:51:58.763Z,54.92
2024-04-21T10:52:58.704Z,53.44
2024-04-21T10:53:58.674Z,55.86
2024-04-21T10:54:58.679Z,53.99
2024-04-21T10:55:58.626Z,53.46
2024-04-21T10:56:58.596Z,54.23
2024-04-21T10:57:58.602Z,53.27
2024-04-21T10:58:58.540Z,51.16
2024-04-21T10:59:58.522Z,53.10
2024-04-21T11:00:58.552Z,50.00
2024-04-21T11:01:58.552Z,54.43
2024-04-21T11:02:58.553Z,53.32
2024-04-21T11:03:58.440Z,52.91
2024-04-21T11:04:58.394Z,53.74
2024-04-21T11:05:58.368Z,52.63
2024-04-21T11:06:58.371Z,53.11
2024-04-21T11:08:58.292Z,53.27
2024-04-21T11:09:58.281Z,55.31
2024-04-21T11:10:58.263Z,54.37
2024-04-21T11:11:58.197Z,52.12
2024-04-21T11:12:58.180Z,50.77
2024-04-21T11:13:58.160Z,53.19
2024-04-21T11:14:58.142Z,55.33
2024-04-21T11:15:58.116Z,55.91
2024-04-21T11:16:58.049Z,56.37
2024-04-21T11:17:58.232Z,55.50
2024-04-21T11:18:58.070Z,55.77
2024-04-21T11:19:58.075Z,56.01
2024-04-21T11:20:58.083Z,53.62
2024-04-21T11:21:58.094Z,56.44
2024-04-21T11:22:58.078Z,54.54
2024-04-21T11:23:58.069Z,52.72
2024-04-21T11:24:58.093Z,51.74
2024-04-21T11:25:58.056Z,52.93
2024-04-21T11:26:58.048Z,55.36
2024-04-21T11:27:58.050Z,54.51
2024-04-21T11:28:57.983Z,53.32
2024-04-21T11:29:57.956Z,52.79
2024-04-21T11:30:57.946Z,54.21
2024-04-21T11:31:57.912Z,53.51
2024-04-21T11:32:58.020Z,54.00
2024-04-21T11:33:57.845Z,54.66
2024-04-21T11:34:57.792Z,54.32
2024-04-21T11:35:57.754Z,55.42
2024-04-21T11:36:57.756Z,55.25
2024-04-21T11:37:57.704Z,54.80
2024-04-21T11:38:57.679Z,57.06
2024-04-21T11:39:57.654Z,52.96
2024-04-21T11:40:57.685Z,55.47
2024-04-21T11:41:57.579Z,52.27
2024-04-21T11:42:57.607Z,53.61
2024-04-21T11:43:57.599Z,52.99
2024-04-21T11:44:57.578Z,56.22
2024-04-21T11:45:57.642Z,57.44
2024-04-21T11:46:57.653Z,54.03
2024-04-21T11:47:57.851Z,53.92
2024-04-21T11:48:57.793Z,52.89
2024-04-21T11:49:57.659Z,52.53
2024-04-21T11:50:57.671Z,54.21
2024-04-21T11:51:57.701Z,53.44
2024-04-21T11:52:57.668Z,54.68
2024-04-21T11:53:57.684Z,54.09
2024-04-21T11:54:57.725Z,55.08
2024-04-21T11:55:57.696Z,53.96
2024-04-21T11:56:57.656Z,57.46
2024-04-21T11:57:57.694Z,56.37
2024-04-21T11:58:57.617Z,54.40
2024-04-21T11:59:57.595Z,54.73
2024-04-21T12:00:57.709Z,51.43
2024-04-21T12:01:57.608Z,52.17
2024-04-21T12:02:57.562Z,54.75
2024-04-21T12:03:57.536Z,54.97
2024-04-21T12:04:57.655Z,51.18
2024-04-21T12:05:57.456Z,55.03
2024-04-21T12:06:57.458Z,56.23
2024-04-21T12:07:57.406Z,52.83
2024-04-21T12:08:57.387Z,53.36
2024-04-21T12:09:57.397Z,57.12
2024-04-21T12:10:57.412Z,55.06
2024-04-21T12:11:57.356Z,57.66
2024-04-21T12:12:57.366Z,54.92
2024-04-21T12:13:57.283Z,55.41
2024-04-21T12:14:57.262Z,52.79
2024-04-21T12:15:57.320Z,53.36
2024-04-21T12:16:57.346Z,55.75
2024-04-21T12:17:57.203Z,52.75
2024-04-21T12:18:57.224Z,55.52
2024-04-21T12:19:57.134Z,50.98
2024-04-21T12:20:57.136Z,55.99
2024-04-21T12:21:57.149Z,53.21
2024-04-21T12:22:57.077Z,55.10
2024-04-21T12:23:57.056Z,53.90
2024-04-21T12:24:57.025Z,53.10
2024-04-21T12:25:57.017Z,53.07
2024-04-21T12:26:57.016Z,52.97
2024-04-21T12:27:57.028Z,52.33
2024-04-21T12:28:56.965Z,52.23
2024-04-21T12:29:56.942Z,52.21
2024-04-21T12:30:56.996Z,52.97
2024-04-21T12:31:56.905Z,52.77
2024-04-21T12:32:57.161Z,50.92
2024-04-21T12:33:56.907Z,52.77
2024-04-21T12:34:56.869Z,54.97
2024-04-21T12:35:56.861Z,53.14
2024-04-21T12:36:56.840Z,50.92
2024-04-21T12:37:56.808Z,52.86
2024-04-21T12:38:56.796Z,54.29
2024-04-21T12:39:56.807Z,55.13
2024-04-21T12:40:56.764Z,52.77
2024-04-21T12:41:56.740Z,54.67
2024-04-21T12:42:56.749Z,53.31
2024-04-21T12:43:56.720Z,54.76
2024-04-21T12:44:56.699Z,54.72
2024-04-21T12:45:56.760Z,53.69
2024-04-21T12:46:56.719Z,54.61
2024-04-21T12:47:56.674Z,53.96